»·PEaware :: N730PC KOXR-KSMX

N730PC :: KOXR-KSMX

FLIGHT INFORMATION

Flight Status: Arrived
Operator: Privately registered:
United States
More flights under this callsign
Pilot: Patrick C. (24099)
Aircraft: CESSNA 172 SKYHAWK
(C172)
More flights by this aircraft type
Origin: KOXR Oxnard
United States
Destination: KSMX Santa Maria Pub/Capt Hancock
United States
More flights between these airports :: More routes between these airports
Route:
File this flight plan on PilotEdge
Remarks: VFR
Altitude:
(Current/Filed)
4,500ft
Speed:
(Current/Filed)
110kts
Departed: 14-Apr-19 12:40 PM
Arrived: 14-Apr-19 01:23 PM
Distance/Time
Traveled:
74nm/0:43
Distance/Time
To Go:
Arrived

Flight Plot

Page will automatically refresh every two minutes.

Flight plan parsing failed; only flown route is shown


Map Options




Map Legend


Flown Route
Filed Route
Departure Airport
Arrival Airport
Navaid (VOR, NDB)
Fix

Horizontal Profiles

Position Reports

Time Latitude Longitude Heading Altitude Ground
Speed
14-Apr-19 12:28 34.198731 -119.202074 359 43ft 0kts
14-Apr-19 12:29 34.198731 -119.202074 359 43ft 0kts
14-Apr-19 12:29 34.198731 -119.202074 359 43ft 0kts
14-Apr-19 12:31 34.198731 -119.202074 359 43ft 0kts
14-Apr-19 12:31 34.198731 -119.202074 359 43ft 0kts
14-Apr-19 12:32 34.198731 -119.202074 359 43ft 0kts
14-Apr-19 12:34 34.198731 -119.202074 359 43ft 0kts
14-Apr-19 12:34 34.198731 -119.202074 359 43ft 0kts
14-Apr-19 12:36 34.198759 -119.202074 359 43ft 0kts
14-Apr-19 12:36 34.199494 -119.201944 51 43ft 12kts
14-Apr-19 12:37 34.199926 -119.197571 16 46ft 5kts
14-Apr-19 12:38 34.200269 -119.197554 358 46ft 12kts
14-Apr-19 12:39 34.200700 -119.216144 270 521ft 82kts
14-Apr-19 12:40 34.209237 -119.240360 338 1481ft 97kts
14-Apr-19 12:41 34.233974 -119.254465 302 2186ft 101kts
14-Apr-19 12:42 34.248612 -119.283462 297 2882ft 101kts
14-Apr-19 12:43 34.262955 -119.312247 301 3578ft 99kts
14-Apr-19 12:44 34.277824 -119.339757 301 4273ft 96kts
14-Apr-19 12:45 34.294021 -119.369459 302 4511ft 120kts
14-Apr-19 12:46 34.312368 -119.402774 302 4507ft 117kts
14-Apr-19 12:47 34.330262 -119.435874 302 4507ft 116kts
14-Apr-19 12:48 34.347645 -119.468708 302 4505ft 116kts
14-Apr-19 12:49 34.365510 -119.501461 304 4504ft 116kts
14-Apr-19 12:50 34.383790 -119.534216 304 4502ft 117kts
14-Apr-19 12:51 34.401974 -119.567464 304 4501ft 118kts
14-Apr-19 12:52 34.419255 -119.599687 303 4501ft 118kts
14-Apr-19 12:53 34.435108 -119.629800 303 4501ft 118kts
14-Apr-19 12:54 34.449541 -119.657694 302 4501ft 118kts
14-Apr-19 12:55 34.463329 -119.684637 304 4501ft 118kts
14-Apr-19 12:56 34.477950 -119.710390 304 4501ft 118kts
14-Apr-19 12:57 34.492852 -119.737052 304 4501ft 118kts
14-Apr-19 12:58 34.510134 -119.768504 303 4501ft 118kts
14-Apr-19 12:59 34.537714 -119.806306 314 4497ft 118kts
14-Apr-19 13:00 34.566978 -119.842861 314 4492ft 117kts
14-Apr-19 13:01 34.589795 -119.871369 313 4489ft 117kts
14-Apr-19 13:02 34.612509 -119.899765 313 4486ft 117kts
14-Apr-19 13:03 34.635217 -119.928186 313 4482ft 117kts
14-Apr-19 13:04 34.657916 -119.956647 312 4479ft 117kts
14-Apr-19 13:05 34.680601 -119.985127 312 4476ft 117kts
14-Apr-19 13:06 34.703370 -120.013768 311 4474ft 117kts
14-Apr-19 13:07 34.726326 -120.042667 309 4465ft 119kts
14-Apr-19 13:08 34.749298 -120.071678 309 4466ft 118kts
14-Apr-19 13:09 34.772142 -120.100542 309 4468ft 118kts
14-Apr-19 13:10 34.794908 -120.129330 309 4471ft 117kts
14-Apr-19 13:11 34.817590 -120.158034 309 4475ft 117kts
14-Apr-19 13:12 34.839981 -120.186393 310 4480ft 116kts
14-Apr-19 13:13 34.861190 -120.215484 290 4484ft 112kts
14-Apr-19 13:14 34.872418 -120.254556 287 4005ft 126kts
14-Apr-19 13:15 34.871988 -120.295950 250 3360ft 125kts
14-Apr-19 13:16 34.860306 -120.333476 253 2430ft 110kts
14-Apr-19 13:17 34.851747 -120.365813 257 1822ft 93kts
14-Apr-19 13:18 34.854120 -120.393921 302 1379ft 73kts
14-Apr-19 13:19 34.866431 -120.412247 305 1079ft 68kts
14-Apr-19 13:20 34.879023 -120.428797 312 841ft 62kts
14-Apr-19 13:21 34.891243 -120.443864 309 348ft 58kts
14-Apr-19 13:22 34.897919 -120.450284 1 265ft 0kts
14-Apr-19 13:23 34.898784 -120.449399 105 265ft 7kts
14-Apr-19 13:24 34.897381 -120.447013 85 265ft 7kts
14-Apr-19 13:25 34.896785 -120.446167 275 265ft 0kts

Navigation Log

Ident Type
Flight plan parsing failed, navigation log unavailable